sensor_id;sensor_type;location;lat;lon;timestamp;temperature;humidity
73149;SHT30;61346;48.930;2.266;2022-07-29T00:01:00;21.62;42.09
73149;SHT30;61346;48.930;2.266;2022-07-29T00:03:26;21.61;42.10
73149;SHT30;61346;48.930;2.266;2022-07-29T00:05:51;21.55;42.18
73149;SHT30;61346;48.930;2.266;2022-07-29T00:08:18;21.56;42.22
73149;SHT30;61346;48.930;2.266;2022-07-29T00:10:43;21.52;42.20
73149;SHT30;61346;48.930;2.266;2022-07-29T00:13:09;21.48;42.19
73149;SHT30;61346;48.930;2.266;2022-07-29T00:15:34;21.44;41.90
73149;SHT30;61346;48.930;2.266;2022-07-29T00:18:00;21.42;41.94
73149;SHT30;61346;48.930;2.266;2022-07-29T00:20:25;21.38;41.88
73149;SHT30;61346;48.930;2.266;2022-07-29T00:22:50;21.37;41.82
73149;SHT30;61346;48.930;2.266;2022-07-29T00:25:17;21.35;41.90
73149;SHT30;61346;48.930;2.266;2022-07-29T00:27:43;21.35;41.94
73149;SHT30;61346;48.930;2.266;2022-07-29T00:30:11;21.31;42.01
73149;SHT30;61346;48.930;2.266;2022-07-29T00:32:36;21.28;41.93
73149;SHT30;61346;48.930;2.266;2022-07-29T00:35:04;21.28;42.12
73149;SHT30;61346;48.930;2.266;2022-07-29T00:37:48;21.26;42.22
73149;SHT30;61346;48.930;2.266;2022-07-29T00:40:14;21.21;42.30
73149;SHT30;61346;48.930;2.266;2022-07-29T00:42:47;21.20;42.32
73149;SHT30;61346;48.930;2.266;2022-07-29T00:45:14;21.18;42.62
73149;SHT30;61346;48.930;2.266;2022-07-29T00:47:40;21.14;42.76
73149;SHT30;61346;48.930;2.266;2022-07-29T00:50:06;21.11;42.83
73149;SHT30;61346;48.930;2.266;2022-07-29T00:52:34;21.07;43.03
73149;SHT30;61346;48.930;2.266;2022-07-29T00:55:01;21.06;43.09
73149;SHT30;61346;48.930;2.266;2022-07-29T00:57:27;21.01;43.08
73149;SHT30;61346;48.930;2.266;2022-07-29T00:59:52;20.99;43.34
73149;SHT30;61346;48.930;2.266;2022-07-29T01:02:18;20.94;43.44
73149;SHT30;61346;48.930;2.266;2022-07-29T01:04:43;20.93;43.56
73149;SHT30;61346;48.930;2.266;2022-07-29T01:07:09;20.87;43.72
73149;SHT30;61346;48.930;2.266;2022-07-29T01:09:36;20.87;43.91
73149;SHT30;61346;48.930;2.266;2022-07-29T01:12:02;20.83;43.96
73149;SHT30;61346;48.930;2.266;2022-07-29T01:14:29;20.80;44.07
73149;SHT30;61346;48.930;2.266;2022-07-29T01:17:06;20.76;44.06
73149;SHT30;61346;48.930;2.266;2022-07-29T01:30:32;20.62;44.94
73149;SHT30;61346;48.930;2.266;2022-07-29T01:33:07;20.59;45.04
73149;SHT30;61346;48.930;2.266;2022-07-29T01:35:44;20.56;45.07
73149;SHT30;61346;48.930;2.266;2022-07-29T01:38:21;20.52;45.20
73149;SHT30;61346;48.930;2.266;2022-07-29T01:41:10;20.51;45.30
73149;SHT30;61346;48.930;2.266;2022-07-29T01:43:54;20.49;45.35
73149;SHT30;61346;48.930;2.266;2022-07-29T01:46:31;20.46;45.50
73149;SHT30;61346;48.930;2.266;2022-07-29T01:49:05;20.44;45.79
73149;SHT30;61346;48.930;2.266;2022-07-29T01:51:38;20.44;46.33
73149;SHT30;61346;48.930;2.266;2022-07-29T01:54:10;20.41;46.58
73149;SHT30;61346;48.930;2.266;2022-07-29T01:56:38;20.39;46.85
73149;SHT30;61346;48.930;2.266;2022-07-29T01:59:06;20.37;46.84
73149;SHT30;61346;48.930;2.266;2022-07-29T02:01:33;20.35;46.91
73149;SHT30;61346;48.930;2.266;2022-07-29T02:04:03;20.32;46.93
73149;SHT30;61346;48.930;2.266;2022-07-29T02:06:32;20.31;47.18
73149;SHT30;61346;48.930;2.266;2022-07-29T02:08:58;20.29;47.30
73149;SHT30;61346;48.930;2.266;2022-07-29T02:11:25;20.27;47.53
73149;SHT30;61346;48.930;2.266;2022-07-29T02:13:52;20.25;47.75
73149;SHT30;61346;48.930;2.266;2022-07-29T02:16:21;20.18;47.74
73149;SHT30;61346;48.930;2.266;2022-07-29T02:18:48;20.11;47.79
73149;SHT30;61346;48.930;2.266;2022-07-29T02:21:20;20.10;48.02
73149;SHT30;61346;48.930;2.266;2022-07-29T02:23:47;20.07;47.99
73149;SHT30;61346;48.930;2.266;2022-07-29T02:26:14;20.06;47.89
73149;SHT30;61346;48.930;2.266;2022-07-29T02:28:40;20.04;48.23
73149;SHT30;61346;48.930;2.266;2022-07-29T02:31:07;20.01;47.99
73149;SHT30;61346;48.930;2.266;2022-07-29T02:33:33;19.98;48.14
73149;SHT30;61346;48.930;2.266;2022-07-29T02:36:00;19.96;48.26
73149;SHT30;61346;48.930;2.266;2022-07-29T02:38:28;19.93;48.64
73149;SHT30;61346;48.930;2.266;2022-07-29T02:41:17;19.87;48.75
73149;SHT30;61346;48.930;2.266;2022-07-29T02:43:46;19.86;48.76
73149;SHT30;61346;48.930;2.266;2022-07-29T02:46:17;19.81;50.03
73149;SHT30;61346;48.930;2.266;2022-07-29T02:48:48;19.79;49.29
73149;SHT30;61346;48.930;2.266;2022-07-29T02:51:25;19.76;49.72
73149;SHT30;61346;48.930;2.266;2022-07-29T02:53:54;19.72;49.62
73149;SHT30;61346;48.930;2.266;2022-07-29T02:56:25;19.65;49.70
73149;SHT30;61346;48.930;2.266;2022-07-29T02:58:58;19.65;49.86
73149;SHT30;61346;48.930;2.266;2022-07-29T03:01:25;19.59;49.69
73149;SHT30;61346;48.930;2.266;2022-07-29T03:03:53;19.56;49.72
73149;SHT30;61346;48.930;2.266;2022-07-29T03:06:21;19.55;49.66
73149;SHT30;61346;48.930;2.266;2022-07-29T03:08:48;19.55;49.69
73149;SHT30;61346;48.930;2.266;2022-07-29T03:11:20;19.52;49.44
73149;SHT30;61346;48.930;2.266;2022-07-29T03:13:47;19.49;50.90
73149;SHT30;61346;48.930;2.266;2022-07-29T03:16:13;19.45;49.86
73149;SHT30;61346;48.930;2.266;2022-07-29T03:18:39;19.42;50.19
73149;SHT30;61346;48.930;2.266;2022-07-29T03:21:05;19.38;49.89
73149;SHT30;61346;48.930;2.266;2022-07-29T03:23:30;19.36;49.68
73149;SHT30;61346;48.930;2.266;2022-07-29T03:25:56;19.31;49.84
73149;SHT30;61346;48.930;2.266;2022-07-29T03:28:22;19.29;49.92
73149;SHT30;61346;48.930;2.266;2022-07-29T03:30:48;19.26;49.91
73149;SHT30;61346;48.930;2.266;2022-07-29T03:33:13;19.25;50.56
73149;SHT30;61346;48.930;2.266;2022-07-29T03:35:39;19.17;50.10
73149;SHT30;61346;48.930;2.266;2022-07-29T03:38:04;19.11;50.29
73149;SHT30;61346;48.930;2.266;2022-07-29T03:40:46;19.08;50.26
73149;SHT30;61346;48.930;2.266;2022-07-29T03:43:15;19.03;50.63
73149;SHT30;61346;48.930;2.266;2022-07-29T03:45:44;19.01;50.53
73149;SHT30;61346;48.930;2.266;2022-07-29T03:48:14;18.98;50.67
73149;SHT30;61346;48.930;2.266;2022-07-29T03:50:41;18.96;50.35
73149;SHT30;61346;48.930;2.266;2022-07-29T03:53:07;18.97;50.09
73149;SHT30;61346;48.930;2.266;2022-07-29T03:55:37;18.96;50.33
73149;SHT30;61346;48.930;2.266;2022-07-29T03:58:06;18.98;50.32
73149;SHT30;61346;48.930;2.266;2022-07-29T04:00:34;18.96;50.62
73149;SHT30;61346;48.930;2.266;2022-07-29T04:03:00;18.97;50.51
73149;SHT30;61346;48.930;2.266;2022-07-29T04:05:26;18.93;50.66
73149;SHT30;61346;48.930;2.266;2022-07-29T04:07:51;18.93;50.59
73149;SHT30;61346;48.930;2.266;2022-07-29T04:10:17;18.94;50.56
73149;SHT30;61346;48.930;2.266;2022-07-29T04:12:43;18.88;50.66
73149;SHT30;61346;48.930;2.266;2022-07-29T04:15:09;18.90;50.68
73149;SHT30;61346;48.930;2.266;2022-07-29T04:17:34;18.90;50.82
73149;SHT30;61346;48.930;2.266;2022-07-29T04:20:01;18.88;50.59
73149;SHT30;61346;48.930;2.266;2022-07-29T04:22:27;18.86;50.87
73149;SHT30;61346;48.930;2.266;2022-07-29T04:24:52;18.86;50.80
73149;SHT30;61346;48.930;2.266;2022-07-29T04:27:17;18.87;51.51
73149;SHT30;61346;48.930;2.266;2022-07-29T04:29:43;18.84;51.06
73149;SHT30;61346;48.930;2.266;2022-07-29T04:32:08;18.87;51.02
73149;SHT30;61346;48.930;2.266;2022-07-29T04:34:34;18.88;51.07
73149;SHT30;61346;48.930;2.266;2022-07-29T04:36:59;18.90;51.24
73149;SHT30;61346;48.930;2.266;2022-07-29T04:39:25;18.94;51.14
73149;SHT30;61346;48.930;2.266;2022-07-29T04:41:51;18.98;50.89
73149;SHT30;61346;48.930;2.266;2022-07-29T04:44:16;18.97;51.59
73149;SHT30;61346;48.930;2.266;2022-07-29T04:46:41;19.00;51.58
73149;SHT30;61346;48.930;2.266;2022-07-29T04:49:07;19.07;51.50
73149;SHT30;61346;48.930;2.266;2022-07-29T04:51:33;19.15;51.32
73149;SHT30;61346;48.930;2.266;2022-07-29T04:53:59;19.21;51.45
73149;SHT30;61346;48.930;2.266;2022-07-29T04:56:24;19.26;51.30
73149;SHT30;61346;48.930;2.266;2022-07-29T04:58:50;19.32;51.22
73149;SHT30;61346;48.930;2.266;2022-07-29T05:01:15;19.46;51.13
73149;SHT30;61346;48.930;2.266;2022-07-29T05:03:40;19.61;50.78
73149;SHT30;61346;48.930;2.266;2022-07-29T05:06:06;19.70;50.61
73149;SHT30;61346;48.930;2.266;2022-07-29T05:08:31;19.83;50.52
73149;SHT30;61346;48.930;2.266;2022-07-29T05:10:57;19.94;50.27
73149;SHT30;61346;48.930;2.266;2022-07-29T05:13:22;20.01;50.54
73149;SHT30;61346;48.930;2.266;2022-07-29T05:15:48;20.07;50.65
73149;SHT30;61346;48.930;2.266;2022-07-29T05:18:13;20.07;50.87
73149;SHT30;61346;48.930;2.266;2022-07-29T05:20:39;20.14;51.00
73149;SHT30;61346;48.930;2.266;2022-07-29T05:23:05;20.16;50.87
73149;SHT30;61346;48.930;2.266;2022-07-29T05:25:30;20.18;50.72
73149;SHT30;61346;48.930;2.266;2022-07-29T05:27:56;20.20;50.75
73149;SHT30;61346;48.930;2.266;2022-07-29T05:30:22;20.20;50.94
73149;SHT30;61346;48.930;2.266;2022-07-29T05:32:48;20.25;50.25
73149;SHT30;61346;48.930;2.266;2022-07-29T05:35:14;20.27;50.05
73149;SHT30;61346;48.930;2.266;2022-07-29T05:37:40;20.32;50.07
73149;SHT30;61346;48.930;2.266;2022-07-29T05:40:05;20.37;50.59
73149;SHT30;61346;48.930;2.266;2022-07-29T05:42:31;20.35;50.05
73149;SHT30;61346;48.930;2.266;2022-07-29T05:44:57;20.35;49.70
73149;SHT30;61346;48.930;2.266;2022-07-29T05:47:23;20.34;49.81
73149;SHT30;61346;48.930;2.266;2022-07-29T05:49:48;20.37;50.11
73149;SHT30;61346;48.930;2.266;2022-07-29T05:52:14;20.34;50.01
73149;SHT30;61346;48.930;2.266;2022-07-29T05:54:40;20.37;50.66
73149;SHT30;61346;48.930;2.266;2022-07-29T05:57:05;20.34;50.19
73149;SHT30;61346;48.930;2.266;2022-07-29T05:59:35;20.37;50.18
73149;SHT30;61346;48.930;2.266;2022-07-29T06:02:01;20.35;50.05
73149;SHT30;61346;48.930;2.266;2022-07-29T06:04:26;20.39;50.05
73149;SHT30;61346;48.930;2.266;2022-07-29T06:06:52;20.44;49.90
73149;SHT30;61346;48.930;2.266;2022-07-29T06:09:17;20.45;50.08
73149;SHT30;61346;48.930;2.266;2022-07-29T06:11:43;20.44;50.00
73149;SHT30;61346;48.930;2.266;2022-07-29T06:14:09;20.48;50.00
73149;SHT30;61346;48.930;2.266;2022-07-29T06:16:35;20.49;50.10
73149;SHT30;61346;48.930;2.266;2022-07-29T06:19:00;20.51;49.98
73149;SHT30;61346;48.930;2.266;2022-07-29T06:21:26;20.53;49.83
73149;SHT30;61346;48.930;2.266;2022-07-29T06:23:51;20.53;49.61
73149;SHT30;61346;48.930;2.266;2022-07-29T06:26:16;20.56;49.85
73149;SHT30;61346;48.930;2.266;2022-07-29T06:28:42;20.57;49.84
73149;SHT30;61346;48.930;2.266;2022-07-29T06:31:07;20.55;49.92
73149;SHT30;61346;48.930;2.266;2022-07-29T06:33:33;20.59;49.74
73149;SHT30;61346;48.930;2.266;2022-07-29T06:35:58;20.55;49.69
73149;SHT30;61346;48.930;2.266;2022-07-29T06:38:24;20.56;49.59
73149;SHT30;61346;48.930;2.266;2022-07-29T06:40:50;20.62;49.15
73149;SHT30;61346;48.930;2.266;2022-07-29T06:46:08;20.77;49.10
73149;SHT30;61346;48.930;2.266;2022-07-29T06:48:35;20.86;48.87
73149;SHT30;61346;48.930;2.266;2022-07-29T06:51:02;20.89;48.59
73149;SHT30;61346;48.930;2.266;2022-07-29T06:53:28;20.93;48.61
73149;SHT30;61346;48.930;2.266;2022-07-29T06:55:53;20.94;48.88
73149;SHT30;61346;48.930;2.266;2022-07-29T06:58:18;20.97;48.56
73149;SHT30;61346;48.930;2.266;2022-07-29T07:00:46;21.01;48.36
73149;SHT30;61346;48.930;2.266;2022-07-29T07:03:12;21.06;48.64
73149;SHT30;61346;48.930;2.266;2022-07-29T07:05:37;21.10;48.42
73149;SHT30;61346;48.930;2.266;2022-07-29T07:08:03;21.14;48.38
73149;SHT30;61346;48.930;2.266;2022-07-29T07:10:29;21.20;48.35
73149;SHT30;61346;48.930;2.266;2022-07-29T07:12:54;21.27;48.20
73149;SHT30;61346;48.930;2.266;2022-07-29T07:15:20;21.31;48.10
73149;SHT30;61346;48.930;2.266;2022-07-29T07:17:48;21.39;47.98
73149;SHT30;61346;48.930;2.266;2022-07-29T07:20:14;21.41;47.95
73149;SHT30;61346;48.930;2.266;2022-07-29T07:22:40;21.47;47.52
73149;SHT30;61346;48.930;2.266;2022-07-29T07:25:06;21.52;47.49
73149;SHT30;61346;48.930;2.266;2022-07-29T07:27:33;21.59;47.37
73149;SHT30;61346;48.930;2.266;2022-07-29T07:29:58;21.65;47.35
73149;SHT30;61346;48.930;2.266;2022-07-29T07:32:26;21.78;47.12
73149;SHT30;61346;48.930;2.266;2022-07-29T07:34:51;21.83;47.28
73149;SHT30;61346;48.930;2.266;2022-07-29T07:37:17;21.89;47.08
73149;SHT30;61346;48.930;2.266;2022-07-29T07:39:45;21.96;46.90
73149;SHT30;61346;48.930;2.266;2022-07-29T07:42:11;22.04;46.89
73149;SHT30;61346;48.930;2.266;2022-07-29T07:44:38;22.10;46.83
73149;SHT30;61346;48.930;2.266;2022-07-29T07:47:04;22.21;46.70
73149;SHT30;61346;48.930;2.266;2022-07-29T07:49:29;22.27;46.50
73149;SHT30;61346;48.930;2.266;2022-07-29T07:51:55;22.40;46.42
73149;SHT30;61346;48.930;2.266;2022-07-29T07:54:20;22.48;46.29
73149;SHT30;61346;48.930;2.266;2022-07-29T07:56:46;22.58;46.15
73149;SHT30;61346;48.930;2.266;2022-07-29T07:59:14;22.64;45.91
73149;SHT30;61346;48.930;2.266;2022-07-29T08:01:39;22.69;45.93
73149;SHT30;61346;48.930;2.266;2022-07-29T08:04:04;22.78;45.72
73149;SHT30;61346;48.930;2.266;2022-07-29T08:06:29;22.91;45.68
73149;SHT30;61346;48.930;2.266;2022-07-29T08:08:55;22.98;45.52
73149;SHT30;61346;48.930;2.266;2022-07-29T08:11:20;23.07;45.05
73149;SHT30;61346;48.930;2.266;2022-07-29T08:13:46;23.19;44.86
73149;SHT30;61346;48.930;2.266;2022-07-29T08:16:12;23.24;44.68
73149;SHT30;61346;48.930;2.266;2022-07-29T08:18:39;23.34;44.71
73149;SHT30;61346;48.930;2.266;2022-07-29T08:21:05;23.46;44.78
73149;SHT30;61346;48.930;2.266;2022-07-29T08:23:30;23.57;44.54
73149;SHT30;61346;48.930;2.266;2022-07-29T08:26:11;23.62;44.19
73149;SHT30;61346;48.930;2.266;2022-07-29T08:28:37;23.68;44.35
73149;SHT30;61346;48.930;2.266;2022-07-29T08:31:05;23.77;44.01
73149;SHT30;61346;48.930;2.266;2022-07-29T08:33:32;23.85;43.77
73149;SHT30;61346;48.930;2.266;2022-07-29T08:35:57;23.88;43.58
73149;SHT30;61346;48.930;2.266;2022-07-29T08:38:22;24.02;43.41
73149;SHT30;61346;48.930;2.266;2022-07-29T08:40:48;24.13;42.78
73149;SHT30;61346;48.930;2.266;2022-07-29T08:43:15;24.25;42.44
73149;SHT30;61346;48.930;2.266;2022-07-29T08:45:46;24.34;42.19
73149;SHT30;61346;48.930;2.266;2022-07-29T08:48:17;24.49;41.29
73149;SHT30;61346;48.930;2.266;2022-07-29T08:50:45;24.54;41.34
73149;SHT30;61346;48.930;2.266;2022-07-29T08:53:13;24.59;41.16
73149;SHT30;61346;48.930;2.266;2022-07-29T08:55:42;24.65;41.12
73149;SHT30;61346;48.930;2.266;2022-07-29T08:58:09;24.68;41.21
73149;SHT30;61346;48.930;2.266;2022-07-29T09:00:42;24.80;40.39
73149;SHT30;61346;48.930;2.266;2022-07-29T09:03:09;24.87;40.72
73149;SHT30;61346;48.930;2.266;2022-07-29T09:05:35;24.98;40.97
73149;SHT30;61346;48.930;2.266;2022-07-29T09:08:01;25.06;40.34
73149;SHT30;61346;48.930;2.266;2022-07-29T09:10:27;25.15;39.97
73149;SHT30;61346;48.930;2.266;2022-07-29T09:12:54;25.23;39.34
73149;SHT30;61346;48.930;2.266;2022-07-29T09:15:23;25.33;39.23
73149;SHT30;61346;48.930;2.266;2022-07-29T09:17:49;25.46;39.14
73149;SHT30;61346;48.930;2.266;2022-07-29T09:20:18;25.51;38.74
73149;SHT30;61346;48.930;2.266;2022-07-29T09:22:45;25.62;38.88
73149;SHT30;61346;48.930;2.266;2022-07-29T09:25:36;25.71;38.60
73149;SHT30;61346;48.930;2.266;2022-07-29T09:28:14;25.78;38.46
73149;SHT30;61346;48.930;2.266;2022-07-29T09:30:57;25.84;38.27
73149;SHT30;61346;48.930;2.266;2022-07-29T09:33:33;25.91;38.16
73149;SHT30;61346;48.930;2.266;2022-07-29T09:36:07;25.97;37.57
73149;SHT30;61346;48.930;2.266;2022-07-29T09:38:36;26.08;37.42
73149;SHT30;61346;48.930;2.266;2022-07-29T09:41:04;26.14;37.88
73149;SHT30;61346;48.930;2.266;2022-07-29T09:43:30;26.18;37.43
73149;SHT30;61346;48.930;2.266;2022-07-29T09:46:11;26.24;37.73
73149;SHT30;61346;48.930;2.266;2022-07-29T09:48:37;26.31;37.85
73149;SHT30;61346;48.930;2.266;2022-07-29T09:51:03;26.37;37.49
73149;SHT30;61346;48.930;2.266;2022-07-29T09:55:57;26.61;37.34
73149;SHT30;61346;48.930;2.266;2022-07-29T09:58:23;26.72;37.20
73149;SHT30;61346;48.930;2.266;2022-07-29T10:00:49;26.76;36.92
73149;SHT30;61346;48.930;2.266;2022-07-29T10:03:16;26.83;36.91
73149;SHT30;61346;48.930;2.266;2022-07-29T10:05:43;26.91;36.92
73149;SHT30;61346;48.930;2.266;2022-07-29T10:08:10;27.00;36.89
73149;SHT30;61346;48.930;2.266;2022-07-29T10:10:40;27.08;36.59
73149;SHT30;61346;48.930;2.266;2022-07-29T10:13:09;27.18;36.40
73149;SHT30;61346;48.930;2.266;2022-07-29T10:15:37;27.35;36.62
73149;SHT30;61346;48.930;2.266;2022-07-29T10:18:07;27.43;36.34
73149;SHT30;61346;48.930;2.266;2022-07-29T10:20:34;27.53;36.20
73149;SHT30;61346;48.930;2.266;2022-07-29T10:22:59;27.56;35.03
73149;SHT30;61346;48.930;2.266;2022-07-29T10:25:25;27.60;34.94
73149;SHT30;61346;48.930;2.266;2022-07-29T10:27:52;27.62;35.26
73149;SHT30;61346;48.930;2.266;2022-07-29T10:30:18;27.67;34.77
73149;SHT30;61346;48.930;2.266;2022-07-29T10:35:31;27.76;34.33
73149;SHT30;61346;48.930;2.266;2022-07-29T10:41:05;27.94;34.52
73149;SHT30;61346;48.930;2.266;2022-07-29T10:43:51;28.03;33.91
73149;SHT30;61346;48.930;2.266;2022-07-29T10:46:18;28.12;33.94
73149;SHT30;61346;48.930;2.266;2022-07-29T10:49:06;28.15;34.24
73149;SHT30;61346;48.930;2.266;2022-07-29T10:57:25;28.47;34.36
73149;SHT30;61346;48.930;2.266;2022-07-29T11:05:03;28.89;32.80
73149;SHT30;61346;48.930;2.266;2022-07-29T11:07:31;28.97;33.57
73149;SHT30;61346;48.930;2.266;2022-07-29T11:17:28;29.25;32.43
73149;SHT30;61346;48.930;2.266;2022-07-29T11:22:58;29.38;32.71
73149;SHT30;61346;48.930;2.266;2022-07-29T11:25:24;29.42;31.66
73149;SHT30;61346;48.930;2.266;2022-07-29T11:27:51;29.42;31.76
73149;SHT30;61346;48.930;2.266;2022-07-29T11:30:17;29.48;32.29
73149;SHT30;61346;48.930;2.266;2022-07-29T11:32:44;29.59;31.68
73149;SHT30;61346;48.930;2.266;2022-07-29T11:35:17;29.83;31.63
73149;SHT30;61346;48.930;2.266;2022-07-29T11:37:44;30.16;31.67
73149;SHT30;61346;48.930;2.266;2022-07-29T11:40:11;30.38;30.75
73149;SHT30;61346;48.930;2.266;2022-07-29T11:42:38;30.43;31.32
73149;SHT30;61346;48.930;2.266;2022-07-29T11:47:34;30.47;30.96
73149;SHT30;61346;48.930;2.266;2022-07-29T11:50:03;30.52;30.92
73149;SHT30;61346;48.930;2.266;2022-07-29T11:52:34;30.71;30.18
73149;SHT30;61346;48.930;2.266;2022-07-29T11:55:04;30.72;29.93
73149;SHT30;61346;48.930;2.266;2022-07-29T11:57:30;30.69;30.93
73149;SHT30;61346;48.930;2.266;2022-07-29T11:59:57;30.82;30.05
73149;SHT30;61346;48.930;2.266;2022-07-29T12:02:23;30.99;29.68
73149;SHT30;61346;48.930;2.266;2022-07-29T12:04:53;31.15;29.64
73149;SHT30;61346;48.930;2.266;2022-07-29T12:07:26;31.20;29.10
73149;SHT30;61346;48.930;2.266;2022-07-29T12:09:53;31.30;29.77
73149;SHT30;61346;48.930;2.266;2022-07-29T12:12:19;31.65;29.26
73149;SHT30;61346;48.930;2.266;2022-07-29T12:14:45;31.70;28.68
73149;SHT30;61346;48.930;2.266;2022-07-29T12:17:30;31.58;29.52
73149;SHT30;61346;48.930;2.266;2022-07-29T12:20:01;31.58;28.92
73149;SHT30;61346;48.930;2.266;2022-07-29T12:22:32;31.65;28.19
73149;SHT30;61346;48.930;2.266;2022-07-29T12:25:12;31.86;28.30
73149;SHT30;61346;48.930;2.266;2022-07-29T12:27:39;32.19;28.74
73149;SHT30;61346;48.930;2.266;2022-07-29T12:30:07;32.52;27.63
73149;SHT30;61346;48.930;2.266;2022-07-29T12:32:34;32.70;27.87
73149;SHT30;61346;48.930;2.266;2022-07-29T12:35:12;33.01;27.60
73149;SHT30;61346;48.930;2.266;2022-07-29T12:37:40;33.12;27.33
73149;SHT30;61346;48.930;2.266;2022-07-29T12:40:07;33.17;27.90
73149;SHT30;61346;48.930;2.266;2022-07-29T12:42:34;33.43;28.03
73149;SHT30;61346;48.930;2.266;2022-07-29T12:45:00;34.32;27.02
73149;SHT30;61346;48.930;2.266;2022-07-29T12:47:27;34.75;26.66
73149;SHT30;61346;48.930;2.266;2022-07-29T12:50:09;34.69;25.96
73149;SHT30;61346;48.930;2.266;2022-07-29T12:52:35;34.63;25.70
73149;SHT30;61346;48.930;2.266;2022-07-29T12:55:03;34.80;25.42
73149;SHT30;61346;48.930;2.266;2022-07-29T12:57:29;34.90;25.39
73149;SHT30;61346;48.930;2.266;2022-07-29T13:00:14;34.73;24.82
73149;SHT30;61346;48.930;2.266;2022-07-29T13:02:41;34.38;25.21
73149;SHT30;61346;48.930;2.266;2022-07-29T13:05:08;34.07;25.73
73149;SHT30;61346;48.930;2.266;2022-07-29T13:07:35;34.41;25.74
73149;SHT30;61346;48.930;2.266;2022-07-29T13:10:19;34.79;25.82
73149;SHT30;61346;48.930;2.266;2022-07-29T13:13:07;34.89;25.65
73149;SHT30;61346;48.930;2.266;2022-07-29T13:15:35;35.38;25.67
73149;SHT30;61346;48.930;2.266;2022-07-29T13:18:01;35.61;25.40
73149;SHT30;61346;48.930;2.266;2022-07-29T13:20:29;35.86;25.11
73149;SHT30;61346;48.930;2.266;2022-07-29T13:22:58;35.93;25.39
73149;SHT30;61346;48.930;2.266;2022-07-29T13:25:27;36.79;24.57
73149;SHT30;61346;48.930;2.266;2022-07-29T13:27:52;36.84;22.59
73149;SHT30;61346;48.930;2.266;2022-07-29T13:30:20;36.37;23.88
73149;SHT30;61346;48.930;2.266;2022-07-29T13:32:45;36.10;23.91
73149;SHT30;61346;48.930;2.266;2022-07-29T13:35:11;35.69;23.85
73149;SHT30;61346;48.930;2.266;2022-07-29T13:37:37;35.52;24.53
73149;SHT30;61346;48.930;2.266;2022-07-29T13:40:07;35.56;25.06
73149;SHT30;61346;48.930;2.266;2022-07-29T13:42:33;36.03;24.68
73149;SHT30;61346;48.930;2.266;2022-07-29T13:44:59;36.34;24.22
73149;SHT30;61346;48.930;2.266;2022-07-29T13:47:24;36.37;23.36
73149;SHT30;61346;48.930;2.266;2022-07-29T13:49:50;35.83;23.81
73149;SHT30;61346;48.930;2.266;2022-07-29T13:52:16;35.30;24.76
73149;SHT30;61346;48.930;2.266;2022-07-29T13:54:42;35.17;25.21
73149;SHT30;61346;48.930;2.266;2022-07-29T13:57:11;34.99;24.71
73149;SHT30;61346;48.930;2.266;2022-07-29T13:59:37;34.53;25.28
73149;SHT30;61346;48.930;2.266;2022-07-29T14:02:02;34.25;25.63
73149;SHT30;61346;48.930;2.266;2022-07-29T14:04:28;34.32;25.63
73149;SHT30;61346;48.930;2.266;2022-07-29T14:06:53;34.51;25.26
73149;SHT30;61346;48.930;2.266;2022-07-29T14:09:19;34.72;25.05
73149;SHT30;61346;48.930;2.266;2022-07-29T14:11:45;35.17;25.07
73149;SHT30;61346;48.930;2.266;2022-07-29T14:14:11;35.52;24.20
73149;SHT30;61346;48.930;2.266;2022-07-29T14:16:37;35.00;24.53
73149;SHT30;61346;48.930;2.266;2022-07-29T14:19:03;34.41;25.10
73149;SHT30;61346;48.930;2.266;2022-07-29T14:21:28;33.96;25.59
73149;SHT30;61346;48.930;2.266;2022-07-29T14:23:54;33.67;26.18
73149;SHT30;61346;48.930;2.266;2022-07-29T14:26:20;33.62;26.14
73149;SHT30;61346;48.930;2.266;2022-07-29T14:28:46;33.49;25.97
73149;SHT30;61346;48.930;2.266;2022-07-29T14:31:12;33.52;26.12
73149;SHT30;61346;48.930;2.266;2022-07-29T14:33:37;35.24;25.96
73149;SHT30;61346;48.930;2.266;2022-07-29T14:36:03;37.13;23.35
73149;SHT30;61346;48.930;2.266;2022-07-29T14:38:28;37.77;23.53
73149;SHT30;61346;48.930;2.266;2022-07-29T14:40:54;38.31;22.26
73149;SHT30;61346;48.930;2.266;2022-07-29T14:43:19;37.39;22.58
73149;SHT30;61346;48.930;2.266;2022-07-29T14:45:45;36.29;23.53
73149;SHT30;61346;48.930;2.266;2022-07-29T14:48:10;35.55;24.04
73149;SHT30;61346;48.930;2.266;2022-07-29T14:50:37;35.07;24.74
73149;SHT30;61346;48.930;2.266;2022-07-29T14:53:03;34.76;24.99
73149;SHT30;61346;48.930;2.266;2022-07-29T14:55:28;34.55;25.32
73149;SHT30;61346;48.930;2.266;2022-07-29T14:57:54;34.48;24.99
73149;SHT30;61346;48.930;2.266;2022-07-29T15:00:20;34.66;25.42
73149;SHT30;61346;48.930;2.266;2022-07-29T15:02:46;35.38;24.84
73149;SHT30;61346;48.930;2.266;2022-07-29T15:05:12;37.12;23.51
73149;SHT30;61346;48.930;2.266;2022-07-29T15:07:37;39.28;22.56
73149;SHT30;61346;48.930;2.266;2022-07-29T15:10:06;41.92;18.37
73149;SHT30;61346;48.930;2.266;2022-07-29T15:12:32;44.04;17.18
73149;SHT30;61346;48.930;2.266;2022-07-29T15:14:58;45.61;16.31
73149;SHT30;61346;48.930;2.266;2022-07-29T15:17:24;47.37;17.61
73149;SHT30;61346;48.930;2.266;2022-07-29T15:19:49;49.51;15.87
73149;SHT30;61346;48.930;2.266;2022-07-29T15:22:15;51.01;14.71
73149;SHT30;61346;48.930;2.266;2022-07-29T15:24:40;52.11;15.70
73149;SHT30;61346;48.930;2.266;2022-07-29T15:27:06;52.99;14.44
73149;SHT30;61346;48.930;2.266;2022-07-29T15:29:31;52.03;15.18
73149;SHT30;61346;48.930;2.266;2022-07-29T15:31:57;50.67;15.37
73149;SHT30;61346;48.930;2.266;2022-07-29T15:34:22;51.13;15.43
73149;SHT30;61346;48.930;2.266;2022-07-29T15:36:51;49.79;15.72
73149;SHT30;61346;48.930;2.266;2022-07-29T15:39:17;48.33;16.30
73149;SHT30;61346;48.930;2.266;2022-07-29T15:41:42;45.82;16.55
73149;SHT30;61346;48.930;2.266;2022-07-29T15:44:08;44.28;17.73
73149;SHT30;61346;48.930;2.266;2022-07-29T15:46:35;42.76;18.35
73149;SHT30;61346;48.930;2.266;2022-07-29T15:49:19;41.37;18.90
73149;SHT30;61346;48.930;2.266;2022-07-29T15:51:45;40.38;19.40
73149;SHT30;61346;48.930;2.266;2022-07-29T15:54:11;39.55;20.38
73149;SHT30;61346;48.930;2.266;2022-07-29T15:56:38;38.87;20.97
73149;SHT30;61346;48.930;2.266;2022-07-29T15:59:07;38.50;21.20
73149;SHT30;61346;48.930;2.266;2022-07-29T16:01:32;39.38;21.08
73149;SHT30;61346;48.930;2.266;2022-07-29T16:03:57;41.40;20.10
73149;SHT30;61346;48.930;2.266;2022-07-29T16:06:25;44.00;18.69
73149;SHT30;61346;48.930;2.266;2022-07-29T16:08:51;46.41;17.55
73149;SHT30;61346;48.930;2.266;2022-07-29T16:11:19;48.38;15.32
73149;SHT30;61346;48.930;2.266;2022-07-29T16:13:45;49.64;16.29
73149;SHT30;61346;48.930;2.266;2022-07-29T16:16:10;51.05;15.37
73149;SHT30;61346;48.930;2.266;2022-07-29T16:18:38;51.64;15.25